sensor_id;sensor_type;location;lat;lon;timestamp;P1;durP1;ratioP1;P2;durP2;ratioP2
21245;SDS011;10781;50.928;4.440;2023-04-24T00:00:02;19.02;;;11.60;;
21245;SDS011;10781;50.928;4.440;2023-04-24T00:02:35;24.50;;;12.27;;
21245;SDS011;10781;50.928;4.440;2023-04-24T00:05:05;22.33;;;12.68;;
21245;SDS011;10781;50.928;4.440;2023-04-24T00:07:31;19.20;;;12.00;;
21245;SDS011;10781;50.928;4.440;2023-04-24T00:09:57;17.10;;;11.75;;
21245;SDS011;10781;50.928;4.440;2023-04-24T00:12:23;22.67;;;12.07;;
21245;SDS011;10781;50.928;4.440;2023-04-24T00:14:49;23.27;;;12.85;;
21245;SDS011;10781;50.928;4.440;2023-04-24T00:17:15;18.38;;;11.88;;
21245;SDS011;10781;50.928;4.440;2023-04-24T00:19:40;21.50;;;12.25;;
21245;SDS011;10781;50.928;4.440;2023-04-24T00:22:06;22.52;;;12.23;;
21245;SDS011;10781;50.928;4.440;2023-04-24T00:24:32;19.42;;;11.75;;
21245;SDS011;10781;50.928;4.440;2023-04-24T00:26:58;21.88;;;11.88;;
21245;SDS011;10781;50.928;4.440;2023-04-24T00:29:25;21.48;;;10.75;;
21245;SDS011;10781;50.928;4.440;2023-04-24T00:31:52;18.15;;;11.30;;
21245;SDS011;10781;50.928;4.440;2023-04-24T00:34:17;16.98;;;11.15;;
21245;SDS011;10781;50.928;4.440;2023-04-24T00:36:43;19.63;;;12.32;;
21245;SDS011;10781;50.928;4.440;2023-04-24T00:39:08;18.58;;;11.40;;
21245;SDS011;10781;50.928;4.440;2023-04-24T00:41:35;16.25;;;10.85;;
21245;SDS011;10781;50.928;4.440;2023-04-24T00:44:00;19.88;;;11.20;;
21245;SDS011;10781;50.928;4.440;2023-04-24T00:46:26;19.77;;;11.40;;
21245;SDS011;10781;50.928;4.440;2023-04-24T00:48:52;18.58;;;11.13;;
21245;SDS011;10781;50.928;4.440;2023-04-24T00:51:18;23.85;;;12.25;;
21245;SDS011;10781;50.928;4.440;2023-04-24T00:53:43;19.08;;;11.65;;
21245;SDS011;10781;50.928;4.440;2023-04-24T00:56:09;19.17;;;11.63;;
21245;SDS011;10781;50.928;4.440;2023-04-24T00:58:35;21.90;;;11.35;;
21245;SDS011;10781;50.928;4.440;2023-04-24T01:01:01;16.67;;;11.30;;
21245;SDS011;10781;50.928;4.440;2023-04-24T01:03:29;20.40;;;11.70;;
21245;SDS011;10781;50.928;4.440;2023-04-24T01:05:56;21.05;;;11.55;;
21245;SDS011;10781;50.928;4.440;2023-04-24T01:08:24;19.35;;;11.55;;
21245;SDS011;10781;50.928;4.440;2023-04-24T01:10:54;20.58;;;11.45;;
21245;SDS011;10781;50.928;4.440;2023-04-24T01:13:21;17.45;;;11.48;;
21245;SDS011;10781;50.928;4.440;2023-04-24T01:15:47;18.83;;;11.70;;
21245;SDS011;10781;50.928;4.440;2023-04-24T01:18:14;19.95;;;11.40;;
21245;SDS011;10781;50.928;4.440;2023-04-24T01:20:40;21.25;;;12.07;;
21245;SDS011;10781;50.928;4.440;2023-04-24T01:23:08;21.60;;;12.80;;
21245;SDS011;10781;50.928;4.440;2023-04-24T01:25:35;19.13;;;12.55;;
21245;SDS011;10781;50.928;4.440;2023-04-24T01:28:01;20.13;;;12.93;;
21245;SDS011;10781;50.928;4.440;2023-04-24T01:30:29;18.05;;;12.30;;
21245;SDS011;10781;50.928;4.440;2023-04-24T01:32:56;19.65;;;12.15;;
21245;SDS011;10781;50.928;4.440;2023-04-24T01:35:24;18.73;;;12.00;;
21245;SDS011;10781;50.928;4.440;2023-04-24T01:37:50;20.30;;;12.55;;
21245;SDS011;10781;50.928;4.440;2023-04-24T01:40:16;19.40;;;11.35;;
21245;SDS011;10781;50.928;4.440;2023-04-24T01:42:41;22.10;;;12.10;;
21245;SDS011;10781;50.928;4.440;2023-04-24T01:45:08;20.70;;;11.88;;
21245;SDS011;10781;50.928;4.440;2023-04-24T01:47:36;18.48;;;11.63;;
21245;SDS011;10781;50.928;4.440;2023-04-24T01:50:03;17.98;;;11.65;;
21245;SDS011;10781;50.928;4.440;2023-04-24T01:52:29;17.23;;;11.13;;
21245;SDS011;10781;50.928;4.440;2023-04-24T01:54:56;16.83;;;10.38;;
21245;SDS011;10781;50.928;4.440;2023-04-24T01:57:25;17.58;;;10.52;;
21245;SDS011;10781;50.928;4.440;2023-04-24T01:59:51;16.65;;;9.98;;
21245;SDS011;10781;50.928;4.440;2023-04-24T02:02:17;14.32;;;9.82;;
21245;SDS011;10781;50.928;4.440;2023-04-24T02:04:43;13.50;;;8.52;;
21245;SDS011;10781;50.928;4.440;2023-04-24T02:07:08;14.95;;;9.70;;
21245;SDS011;10781;50.928;4.440;2023-04-24T02:09:34;14.95;;;9.05;;
21245;SDS011;10781;50.928;4.440;2023-04-24T02:11:59;15.85;;;9.23;;
21245;SDS011;10781;50.928;4.440;2023-04-24T02:14:25;17.40;;;9.88;;
21245;SDS011;10781;50.928;4.440;2023-04-24T02:16:51;14.20;;;10.10;;
21245;SDS011;10781;50.928;4.440;2023-04-24T02:19:18;17.17;;;10.70;;
21245;SDS011;10781;50.928;4.440;2023-04-24T02:21:44;17.98;;;10.93;;
21245;SDS011;10781;50.928;4.440;2023-04-24T02:24:09;17.63;;;11.02;;
21245;SDS011;10781;50.928;4.440;2023-04-24T02:26:35;16.42;;;11.48;;
21245;SDS011;10781;50.928;4.440;2023-04-24T02:29:01;15.80;;;11.25;;
21245;SDS011;10781;50.928;4.440;2023-04-24T02:31:26;17.95;;;11.80;;
21245;SDS011;10781;50.928;4.440;2023-04-24T02:33:52;18.92;;;11.88;;
21245;SDS011;10781;50.928;4.440;2023-04-24T02:36:18;18.08;;;11.02;;
21245;SDS011;10781;50.928;4.440;2023-04-24T02:38:43;19.33;;;11.57;;
21245;SDS011;10781;50.928;4.440;2023-04-24T02:41:09;19.52;;;11.65;;
21245;SDS011;10781;50.928;4.440;2023-04-24T02:43:35;18.63;;;11.15;;
21245;SDS011;10781;50.928;4.440;2023-04-24T02:46:00;20.45;;;11.65;;
21245;SDS011;10781;50.928;4.440;2023-04-24T02:48:26;16.70;;;11.68;;
21245;SDS011;10781;50.928;4.440;2023-04-24T02:50:52;16.77;;;11.07;;
21245;SDS011;10781;50.928;4.440;2023-04-24T02:53:18;18.02;;;11.55;;
21245;SDS011;10781;50.928;4.440;2023-04-24T02:55:43;18.27;;;11.23;;
21245;SDS011;10781;50.928;4.440;2023-04-24T02:58:09;20.60;;;11.75;;
21245;SDS011;10781;50.928;4.440;2023-04-24T03:00:35;19.00;;;11.95;;
21245;SDS011;10781;50.928;4.440;2023-04-24T03:03:01;16.90;;;11.43;;
21245;SDS011;10781;50.928;4.440;2023-04-24T03:05:27;17.85;;;11.52;;
21245;SDS011;10781;50.928;4.440;2023-04-24T03:07:53;19.85;;;11.77;;
21245;SDS011;10781;50.928;4.440;2023-04-24T03:10:18;18.60;;;11.60;;
21245;SDS011;10781;50.928;4.440;2023-04-24T03:12:44;19.63;;;12.07;;
21245;SDS011;10781;50.928;4.440;2023-04-24T03:15:10;19.33;;;12.20;;
21245;SDS011;10781;50.928;4.440;2023-04-24T03:17:36;21.40;;;12.82;;
21245;SDS011;10781;50.928;4.440;2023-04-24T03:20:02;25.20;;;12.95;;
21245;SDS011;10781;50.928;4.440;2023-04-24T03:22:30;19.38;;;12.35;;
21245;SDS011;10781;50.928;4.440;2023-04-24T03:24:57;16.33;;;10.57;;
21245;SDS011;10781;50.928;4.440;2023-04-24T03:27:23;20.30;;;11.40;;
21245;SDS011;10781;50.928;4.440;2023-04-24T03:29:49;20.83;;;11.40;;
21245;SDS011;10781;50.928;4.440;2023-04-24T03:32:18;17.00;;;10.65;;
21245;SDS011;10781;50.928;4.440;2023-04-24T03:34:44;18.85;;;10.75;;
21245;SDS011;10781;50.928;4.440;2023-04-24T03:37:10;17.15;;;10.13;;
21245;SDS011;10781;50.928;4.440;2023-04-24T03:39:35;20.25;;;10.73;;
21245;SDS011;10781;50.928;4.440;2023-04-24T03:42:01;15.68;;;10.57;;
21245;SDS011;10781;50.928;4.440;2023-04-24T03:44:27;12.45;;;8.85;;
21245;SDS011;10781;50.928;4.440;2023-04-24T03:46:53;13.85;;;9.32;;
21245;SDS011;10781;50.928;4.440;2023-04-24T03:49:18;13.27;;;8.18;;
21245;SDS011;10781;50.928;4.440;2023-04-24T03:51:44;11.52;;;7.80;;
21245;SDS011;10781;50.928;4.440;2023-04-24T03:54:10;10.75;;;7.68;;
21245;SDS011;10781;50.928;4.440;2023-04-24T03:56:35;10.65;;;7.82;;
21245;SDS011;10781;50.928;4.440;2023-04-24T03:59:01;12.40;;;7.80;;
21245;SDS011;10781;50.928;4.440;2023-04-24T04:01:27;11.10;;;7.03;;
21245;SDS011;10781;50.928;4.440;2023-04-24T04:03:53;9.02;;;6.45;;
21245;SDS011;10781;50.928;4.440;2023-04-24T04:06:19;11.48;;;6.90;;
21245;SDS011;10781;50.928;4.440;2023-04-24T04:08:46;10.38;;;6.72;;
21245;SDS011;10781;50.928;4.440;2023-04-24T04:11:12;10.32;;;6.97;;
21245;SDS011;10781;50.928;4.440;2023-04-24T04:13:37;9.65;;;6.78;;
21245;SDS011;10781;50.928;4.440;2023-04-24T04:16:03;8.98;;;6.57;;
21245;SDS011;10781;50.928;4.440;2023-04-24T04:18:29;8.55;;;6.47;;
21245;SDS011;10781;50.928;4.440;2023-04-24T04:20:54;9.82;;;6.65;;
21245;SDS011;10781;50.928;4.440;2023-04-24T04:23:21;10.60;;;6.57;;
21245;SDS011;10781;50.928;4.440;2023-04-24T04:25:47;8.25;;;5.85;;
21245;SDS011;10781;50.928;4.440;2023-04-24T04:28:13;9.95;;;5.75;;
21245;SDS011;10781;50.928;4.440;2023-04-24T04:30:40;9.75;;;5.78;;
21245;SDS011;10781;50.928;4.440;2023-04-24T04:33:06;7.47;;;5.57;;
21245;SDS011;10781;50.928;4.440;2023-04-24T04:35:33;13.93;;;5.90;;
21245;SDS011;10781;50.928;4.440;2023-04-24T04:37:58;9.77;;;6.43;;
21245;SDS011;10781;50.928;4.440;2023-04-24T04:40:24;11.10;;;7.25;;
21245;SDS011;10781;50.928;4.440;2023-04-24T04:42:50;11.70;;;7.65;;
21245;SDS011;10781;50.928;4.440;2023-04-24T04:45:18;11.93;;;7.57;;
21245;SDS011;10781;50.928;4.440;2023-04-24T04:47:43;14.45;;;8.52;;
21245;SDS011;10781;50.928;4.440;2023-04-24T04:50:09;11.07;;;7.60;;
21245;SDS011;10781;50.928;4.440;2023-04-24T04:52:35;14.48;;;8.00;;
21245;SDS011;10781;50.928;4.440;2023-04-24T04:55:01;15.15;;;8.85;;
21245;SDS011;10781;50.928;4.440;2023-04-24T04:57:27;15.00;;;8.93;;
21245;SDS011;10781;50.928;4.440;2023-04-24T04:59:53;15.98;;;9.45;;
21245;SDS011;10781;50.928;4.440;2023-04-24T05:02:18;15.57;;;9.70;;
21245;SDS011;10781;50.928;4.440;2023-04-24T05:04:44;13.70;;;9.20;;
21245;SDS011;10781;50.928;4.440;2023-04-24T05:07:10;16.60;;;9.80;;
21245;SDS011;10781;50.928;4.440;2023-04-24T05:09:36;13.05;;;9.02;;
21245;SDS011;10781;50.928;4.440;2023-04-24T05:12:02;16.30;;;8.98;;
21245;SDS011;10781;50.928;4.440;2023-04-24T05:14:28;16.75;;;9.50;;
21245;SDS011;10781;50.928;4.440;2023-04-24T05:16:53;16.50;;;10.27;;
21245;SDS011;10781;50.928;4.440;2023-04-24T05:19:19;16.42;;;9.63;;
21245;SDS011;10781;50.928;4.440;2023-04-24T05:21:45;19.67;;;9.70;;
21245;SDS011;10781;50.928;4.440;2023-04-24T05:24:11;17.65;;;10.13;;
21245;SDS011;10781;50.928;4.440;2023-04-24T05:26:36;16.88;;;10.13;;
21245;SDS011;10781;50.928;4.440;2023-04-24T05:29:02;16.75;;;10.27;;
21245;SDS011;10781;50.928;4.440;2023-04-24T05:31:29;17.50;;;10.02;;
21245;SDS011;10781;50.928;4.440;2023-04-24T05:33:54;16.67;;;9.48;;
21245;SDS011;10781;50.928;4.440;2023-04-24T05:36:20;16.90;;;10.48;;
21245;SDS011;10781;50.928;4.440;2023-04-24T05:38:46;18.30;;;10.23;;
21245;SDS011;10781;50.928;4.440;2023-04-24T05:41:11;17.83;;;10.82;;
21245;SDS011;10781;50.928;4.440;2023-04-24T05:43:37;15.25;;;10.38;;
21245;SDS011;10781;50.928;4.440;2023-04-24T05:46:03;18.35;;;10.48;;
21245;SDS011;10781;50.928;4.440;2023-04-24T05:48:28;17.27;;;10.57;;
21245;SDS011;10781;50.928;4.440;2023-04-24T05:50:54;16.75;;;10.25;;
21245;SDS011;10781;50.928;4.440;2023-04-24T05:53:20;20.75;;;11.00;;
21245;SDS011;10781;50.928;4.440;2023-04-24T05:55:46;15.73;;;10.38;;
21245;SDS011;10781;50.928;4.440;2023-04-24T05:58:12;21.10;;;11.75;;
21245;SDS011;10781;50.928;4.440;2023-04-24T06:00:38;17.67;;;10.68;;
21245;SDS011;10781;50.928;4.440;2023-04-24T06:03:07;21.20;;;11.18;;
21245;SDS011;10781;50.928;4.440;2023-04-24T06:05:33;19.25;;;11.45;;
21245;SDS011;10781;50.928;4.440;2023-04-24T06:07:59;20.85;;;12.15;;
21245;SDS011;10781;50.928;4.440;2023-04-24T06:10:24;21.05;;;11.50;;
21245;SDS011;10781;50.928;4.440;2023-04-24T06:12:50;22.52;;;12.60;;
21245;SDS011;10781;50.928;4.440;2023-04-24T06:15:16;18.02;;;11.13;;
21245;SDS011;10781;50.928;4.440;2023-04-24T06:17:41;19.45;;;11.27;;
21245;SDS011;10781;50.928;4.440;2023-04-24T06:20:07;19.55;;;12.10;;
21245;SDS011;10781;50.928;4.440;2023-04-24T06:22:33;20.45;;;12.10;;
21245;SDS011;10781;50.928;4.440;2023-04-24T06:25:00;20.83;;;12.15;;
21245;SDS011;10781;50.928;4.440;2023-04-24T06:27:26;20.77;;;11.27;;
21245;SDS011;10781;50.928;4.440;2023-04-24T06:29:52;22.20;;;11.50;;
21245;SDS011;10781;50.928;4.440;2023-04-24T06:32:22;19.48;;;11.02;;
21245;SDS011;10781;50.928;4.440;2023-04-24T06:34:49;18.38;;;11.48;;
21245;SDS011;10781;50.928;4.440;2023-04-24T06:37:15;25.17;;;12.50;;
21245;SDS011;10781;50.928;4.440;2023-04-24T06:39:41;23.73;;;12.32;;
21245;SDS011;10781;50.928;4.440;2023-04-24T06:42:07;19.10;;;11.90;;
21245;SDS011;10781;50.928;4.440;2023-04-24T06:44:34;22.58;;;12.90;;
21245;SDS011;10781;50.928;4.440;2023-04-24T06:47:05;26.85;;;12.05;;
21245;SDS011;10781;50.928;4.440;2023-04-24T06:49:35;21.08;;;13.43;;
21245;SDS011;10781;50.928;4.440;2023-04-24T06:52:01;26.63;;;13.07;;
21245;SDS011;10781;50.928;4.440;2023-04-24T06:54:27;25.90;;;13.55;;
21245;SDS011;10781;50.928;4.440;2023-04-24T06:56:52;22.70;;;12.70;;
21245;SDS011;10781;50.928;4.440;2023-04-24T06:59:18;21.45;;;13.13;;
21245;SDS011;10781;50.928;4.440;2023-04-24T07:01:44;27.25;;;14.10;;
21245;SDS011;10781;50.928;4.440;2023-04-24T07:04:10;23.52;;;13.52;;
21245;SDS011;10781;50.928;4.440;2023-04-24T07:06:37;25.63;;;13.95;;
21245;SDS011;10781;50.928;4.440;2023-04-24T07:09:02;29.45;;;13.70;;
21245;SDS011;10781;50.928;4.440;2023-04-24T07:11:28;21.73;;;13.45;;
21245;SDS011;10781;50.928;4.440;2023-04-24T07:13:54;31.48;;;15.55;;
21245;SDS011;10781;50.928;4.440;2023-04-24T07:16:20;24.65;;;13.40;;
21245;SDS011;10781;50.928;4.440;2023-04-24T07:18:46;30.70;;;14.70;;
21245;SDS011;10781;50.928;4.440;2023-04-24T07:21:11;24.75;;;13.68;;
21245;SDS011;10781;50.928;4.440;2023-04-24T07:23:37;30.75;;;14.65;;
21245;SDS011;10781;50.928;4.440;2023-04-24T07:26:03;25.20;;;13.15;;
21245;SDS011;10781;50.928;4.440;2023-04-24T07:28:29;30.20;;;13.88;;
21245;SDS011;10781;50.928;4.440;2023-04-24T07:30:57;24.35;;;13.63;;
21245;SDS011;10781;50.928;4.440;2023-04-24T07:33:24;30.08;;;13.57;;
21245;SDS011;10781;50.928;4.440;2023-04-24T07:35:53;21.08;;;11.95;;
21245;SDS011;10781;50.928;4.440;2023-04-24T07:38:19;25.52;;;12.48;;
21245;SDS011;10781;50.928;4.440;2023-04-24T07:40:47;27.95;;;13.18;;
21245;SDS011;10781;50.928;4.440;2023-04-24T07:43:13;22.77;;;12.43;;
21245;SDS011;10781;50.928;4.440;2023-04-24T07:45:39;20.92;;;11.43;;
21245;SDS011;10781;50.928;4.440;2023-04-24T07:48:05;19.48;;;10.90;;
21245;SDS011;10781;50.928;4.440;2023-04-24T07:50:31;22.38;;;10.82;;
21245;SDS011;10781;50.928;4.440;2023-04-24T07:52:57;17.25;;;10.23;;
21245;SDS011;10781;50.928;4.440;2023-04-24T07:55:22;17.25;;;9.98;;
21245;SDS011;10781;50.928;4.440;2023-04-24T07:57:48;13.93;;;9.43;;
21245;SDS011;10781;50.928;4.440;2023-04-24T08:00:14;15.93;;;8.80;;
21245;SDS011;10781;50.928;4.440;2023-04-24T08:02:40;17.27;;;8.75;;
21245;SDS011;10781;50.928;4.440;2023-04-24T08:05:06;16.23;;;8.90;;
21245;SDS011;10781;50.928;4.440;2023-04-24T08:07:32;16.08;;;8.60;;
21245;SDS011;10781;50.928;4.440;2023-04-24T08:09:58;19.73;;;8.82;;
21245;SDS011;10781;50.928;4.440;2023-04-24T08:12:24;17.27;;;9.20;;
21245;SDS011;10781;50.928;4.440;2023-04-24T08:14:50;19.92;;;8.90;;
21245;SDS011;10781;50.928;4.440;2023-04-24T08:17:16;18.83;;;8.85;;
21245;SDS011;10781;50.928;4.440;2023-04-24T08:19:42;19.80;;;8.55;;
21245;SDS011;10781;50.928;4.440;2023-04-24T08:22:12;17.27;;;8.75;;
21245;SDS011;10781;50.928;4.440;2023-04-24T08:24:38;17.90;;;8.13;;
21245;SDS011;10781;50.928;4.440;2023-04-24T08:27:03;19.27;;;8.50;;
21245;SDS011;10781;50.928;4.440;2023-04-24T08:29:29;18.17;;;7.57;;
21245;SDS011;10781;50.928;4.440;2023-04-24T08:31:55;14.55;;;7.03;;
21245;SDS011;10781;50.928;4.440;2023-04-24T08:34:21;12.95;;;6.78;;
21245;SDS011;10781;50.928;4.440;2023-04-24T08:36:47;11.75;;;5.97;;
21245;SDS011;10781;50.928;4.440;2023-04-24T08:39:13;13.38;;;5.43;;
21245;SDS011;10781;50.928;4.440;2023-04-24T08:41:40;11.60;;;5.30;;
21245;SDS011;10781;50.928;4.440;2023-04-24T08:44:08;9.93;;;5.38;;
21245;SDS011;10781;50.928;4.440;2023-04-24T08:46:34;9.75;;;5.95;;
21245;SDS011;10781;50.928;4.440;2023-04-24T08:49:01;11.25;;;5.88;;
21245;SDS011;10781;50.928;4.440;2023-04-24T08:51:28;13.02;;;5.75;;
21245;SDS011;10781;50.928;4.440;2023-04-24T08:53:56;15.25;;;5.82;;
21245;SDS011;10781;50.928;4.440;2023-04-24T08:56:22;13.80;;;6.10;;
21245;SDS011;10781;50.928;4.440;2023-04-24T08:58:50;12.93;;;6.22;;
21245;SDS011;10781;50.928;4.440;2023-04-24T09:01:17;11.20;;;5.53;;
21245;SDS011;10781;50.928;4.440;2023-04-24T09:03:47;12.68;;;5.88;;
21245;SDS011;10781;50.928;4.440;2023-04-24T09:06:14;10.95;;;5.63;;
21245;SDS011;10781;50.928;4.440;2023-04-24T09:08:41;12.98;;;5.25;;
21245;SDS011;10781;50.928;4.440;2023-04-24T09:11:08;10.25;;;4.55;;
21245;SDS011;10781;50.928;4.440;2023-04-24T09:13:36;8.90;;;4.47;;
21245;SDS011;10781;50.928;4.440;2023-04-24T09:16:02;9.85;;;4.50;;
21245;SDS011;10781;50.928;4.440;2023-04-24T09:18:28;11.10;;;4.55;;
21245;SDS011;10781;50.928;4.440;2023-04-24T09:20:57;8.52;;;5.00;;
21245;SDS011;10781;50.928;4.440;2023-04-24T09:23:25;12.30;;;4.75;;
21245;SDS011;10781;50.928;4.440;2023-04-24T09:25:54;10.27;;;5.07;;
21245;SDS011;10781;50.928;4.440;2023-04-24T09:28:24;15.50;;;5.40;;
21245;SDS011;10781;50.928;4.440;2023-04-24T09:33:37;10.32;;;4.60;;
21245;SDS011;10781;50.928;4.440;2023-04-24T09:36:03;6.05;;;3.38;;
21245;SDS011;10781;50.928;4.440;2023-04-24T09:38:39;11.05;;;3.97;;
21245;SDS011;10781;50.928;4.440;2023-04-24T09:41:06;6.93;;;3.28;;
21245;SDS011;10781;50.928;4.440;2023-04-24T09:43:33;6.13;;;3.35;;
21245;SDS011;10781;50.928;4.440;2023-04-24T09:46:03;8.90;;;3.55;;
21245;SDS011;10781;50.928;4.440;2023-04-24T09:48:34;7.13;;;3.30;;
21245;SDS011;10781;50.928;4.440;2023-04-24T09:51:01;6.47;;;3.13;;
21245;SDS011;10781;50.928;4.440;2023-04-24T09:53:29;5.80;;;2.90;;
21245;SDS011;10781;50.928;4.440;2023-04-24T09:55:56;9.48;;;3.65;;
21245;SDS011;10781;50.928;4.440;2023-04-24T09:58:27;5.60;;;3.40;;
21245;SDS011;10781;50.928;4.440;2023-04-24T10:00:54;7.30;;;3.47;;
21245;SDS011;10781;50.928;4.440;2023-04-24T10:03:23;9.85;;;3.78;;
21245;SDS011;10781;50.928;4.440;2023-04-24T10:05:51;7.97;;;3.78;;
21245;SDS011;10781;50.928;4.440;2023-04-24T10:08:17;9.05;;;3.78;;
21245;SDS011;10781;50.928;4.440;2023-04-24T10:10:45;7.78;;;3.78;;
21245;SDS011;10781;50.928;4.440;2023-04-24T10:13:11;6.10;;;3.53;;
21245;SDS011;10781;50.928;4.440;2023-04-24T10:15:40;8.40;;;3.50;;
21245;SDS011;10781;50.928;4.440;2023-04-24T10:18:07;8.48;;;3.45;;
21245;SDS011;10781;50.928;4.440;2023-04-24T10:20:34;7.60;;;3.33;;
21245;SDS011;10781;50.928;4.440;2023-04-24T10:23:02;8.10;;;3.58;;
21245;SDS011;10781;50.928;4.440;2023-04-24T10:25:29;7.60;;;3.42;;
21245;SDS011;10781;50.928;4.440;2023-04-24T10:27:57;7.50;;;3.20;;
21245;SDS011;10781;50.928;4.440;2023-04-24T10:30:27;6.28;;;3.50;;
21245;SDS011;10781;50.928;4.440;2023-04-24T10:32:54;5.60;;;3.50;;
21245;SDS011;10781;50.928;4.440;2023-04-24T10:35:20;7.68;;;3.70;;
21245;SDS011;10781;50.928;4.440;2023-04-24T10:37:57;8.15;;;3.45;;
21245;SDS011;10781;50.928;4.440;2023-04-24T10:40:32;6.38;;;3.33;;
21245;SDS011;10781;50.928;4.440;2023-04-24T10:42:59;7.07;;;3.30;;
21245;SDS011;10781;50.928;4.440;2023-04-24T10:45:31;6.45;;;3.42;;
21245;SDS011;10781;50.928;4.440;2023-04-24T10:53:20;9.07;;;3.30;;
21245;SDS011;10781;50.928;4.440;2023-04-24T10:55:52;7.90;;;3.40;;
21245;SDS011;10781;50.928;4.440;2023-04-24T11:01:05;9.68;;;4.07;;
21245;SDS011;10781;50.928;4.440;2023-04-24T11:03:32;7.18;;;3.67;;
21245;SDS011;10781;50.928;4.440;2023-04-24T11:08:38;9.07;;;3.53;;
21245;SDS011;10781;50.928;4.440;2023-04-24T11:11:11;9.32;;;3.63;;
21245;SDS011;10781;50.928;4.440;2023-04-24T11:18:51;4.53;;;3.22;;
21245;SDS011;10781;50.928;4.440;2023-04-24T11:21:22;7.22;;;3.42;;
21245;SDS011;10781;50.928;4.440;2023-04-24T11:23:47;6.88;;;3.50;;
21245;SDS011;10781;50.928;4.440;2023-04-24T11:26:18;7.78;;;3.97;;
21245;SDS011;10781;50.928;4.440;2023-04-24T11:28:46;8.25;;;4.05;;
21245;SDS011;10781;50.928;4.440;2023-04-24T11:34:08;8.48;;;3.35;;
21245;SDS011;10781;50.928;4.440;2023-04-24T11:36:38;6.97;;;3.33;;
21245;SDS011;10781;50.928;4.440;2023-04-24T11:39:05;5.60;;;3.50;;
21245;SDS011;10781;50.928;4.440;2023-04-24T11:41:31;6.28;;;3.75;;
21245;SDS011;10781;50.928;4.440;2023-04-24T11:43:58;6.55;;;3.58;;
21245;SDS011;10781;50.928;4.440;2023-04-24T11:46:28;9.32;;;3.90;;
21245;SDS011;10781;50.928;4.440;2023-04-24T11:48:55;8.57;;;4.13;;
21245;SDS011;10781;50.928;4.440;2023-04-24T11:51:22;5.68;;;3.63;;
21245;SDS011;10781;50.928;4.440;2023-04-24T11:53:50;6.53;;;3.55;;
21245;SDS011;10781;50.928;4.440;2023-04-24T11:56:19;7.45;;;3.75;;
21245;SDS011;10781;50.928;4.440;2023-04-24T11:58:48;7.65;;;3.50;;
21245;SDS011;10781;50.928;4.440;2023-04-24T12:01:16;5.07;;;3.60;;
21245;SDS011;10781;50.928;4.440;2023-04-24T12:03:46;5.70;;;3.33;;
21245;SDS011;10781;50.928;4.440;2023-04-24T12:06:13;6.38;;;3.60;;
21245;SDS011;10781;50.928;4.440;2023-04-24T12:08:38;5.72;;;3.63;;
21245;SDS011;10781;50.928;4.440;2023-04-24T12:11:05;7.50;;;4.00;;
21245;SDS011;10781;50.928;4.440;2023-04-24T12:13:35;6.50;;;3.50;;
21245;SDS011;10781;50.928;4.440;2023-04-24T12:16:02;4.93;;;3.22;;
21245;SDS011;10781;50.928;4.440;2023-04-24T12:18:29;8.48;;;3.53;;
21245;SDS011;10781;50.928;4.440;2023-04-24T12:20:55;4.63;;;3.50;;
21245;SDS011;10781;50.928;4.440;2023-04-24T12:23:53;8.00;;;3.78;;
21245;SDS011;10781;50.928;4.440;2023-04-24T12:26:20;6.53;;;3.22;;
21245;SDS011;10781;50.928;4.440;2023-04-24T12:28:47;5.28;;;3.25;;
21245;SDS011;10781;50.928;4.440;2023-04-24T12:31:15;5.45;;;3.33;;
21245;SDS011;10781;50.928;4.440;2023-04-24T12:33:41;7.38;;;3.63;;
21245;SDS011;10781;50.928;4.440;2023-04-24T12:36:09;5.10;;;3.38;;
21245;SDS011;10781;50.928;4.440;2023-04-24T12:38:37;6.07;;;3.38;;
21245;SDS011;10781;50.928;4.440;2023-04-24T12:41:09;9.02;;;3.63;;
21245;SDS011;10781;50.928;4.440;2023-04-24T12:43:36;4.95;;;3.72;;
21245;SDS011;10781;50.928;4.440;2023-04-24T12:46:02;5.88;;;3.80;;
21245;SDS011;10781;50.928;4.440;2023-04-24T12:48:29;8.85;;;3.65;;
21245;SDS011;10781;50.928;4.440;2023-04-24T12:50:59;8.73;;;3.95;;
21245;SDS011;10781;50.928;4.440;2023-04-24T12:53:28;6.78;;;3.45;;
21245;SDS011;10781;50.928;4.440;2023-04-24T12:55:55;7.90;;;3.60;;
21245;SDS011;10781;50.928;4.440;2023-04-24T12:58:21;7.45;;;4.05;;
21245;SDS011;10781;50.928;4.440;2023-04-24T13:00:47;5.65;;;3.30;;
21245;SDS011;10781;50.928;4.440;2023-04-24T13:03:13;7.85;;;3.47;;
21245;SDS011;10781;50.928;4.440;2023-04-24T13:05:39;7.13;;;2.83;;
21245;SDS011;10781;50.928;4.440;2023-04-24T13:08:05;6.13;;;2.78;;
21245;SDS011;10781;50.928;4.440;2023-04-24T13:10:30;5.38;;;2.92;;
21245;SDS011;10781;50.928;4.440;2023-04-24T13:12:56;6.32;;;2.72;;
21245;SDS011;10781;50.928;4.440;2023-04-24T13:15:22;4.68;;;2.33;;
21245;SDS011;10781;50.928;4.440;2023-04-24T13:17:48;2.70;;;1.63;;
21245;SDS011;10781;50.928;4.440;2023-04-24T13:20:14;6.15;;;2.00;;
21245;SDS011;10781;50.928;4.440;2023-04-24T13:22:39;4.32;;;1.90;;
21245;SDS011;10781;50.928;4.440;2023-04-24T13:25:05;4.78;;;2.30;;
21245;SDS011;10781;50.928;4.440;2023-04-24T13:27:32;8.35;;;2.45;;
21245;SDS011;10781;50.928;4.440;2023-04-24T13:29:57;5.25;;;2.47;;
21245;SDS011;10781;50.928;4.440;2023-04-24T13:32:23;3.80;;;2.20;;
21245;SDS011;10781;50.928;4.440;2023-04-24T13:34:49;3.25;;;2.25;;
21245;SDS011;10781;50.928;4.440;2023-04-24T13:37:14;5.25;;;2.88;;
21245;SDS011;10781;50.928;4.440;2023-04-24T13:39:40;5.28;;;2.40;;
21245;SDS011;10781;50.928;4.440;2023-04-24T13:42:09;11.07;;;4.00;;
21245;SDS011;10781;50.928;4.440;2023-04-24T13:44:34;6.53;;;2.50;;
21245;SDS011;10781;50.928;4.440;2023-04-24T13:47:00;4.30;;;2.45;;
21245;SDS011;10781;50.928;4.440;2023-04-24T13:49:26;7.40;;;2.63;;
21245;SDS011;10781;50.928;4.440;2023-04-24T13:51:52;7.18;;;2.70;;
21245;SDS011;10781;50.928;4.440;2023-04-24T13:54:19;9.32;;;3.00;;
21245;SDS011;10781;50.928;4.440;2023-04-24T13:56:44;5.45;;;2.20;;
21245;SDS011;10781;50.928;4.440;2023-04-24T13:59:12;8.75;;;3.22;;
21245;SDS011;10781;50.928;4.440;2023-04-24T14:01:38;5.10;;;2.20;;
21245;SDS011;10781;50.928;4.440;2023-04-24T14:04:04;8.18;;;2.22;;
21245;SDS011;10781;50.928;4.440;2023-04-24T14:06:29;3.70;;;2.10;;
21245;SDS011;10781;50.928;4.440;2023-04-24T14:08:56;3.53;;;1.98;;
21245;SDS011;10781;50.928;4.440;2023-04-24T14:11:22;4.15;;;2.10;;
21245;SDS011;10781;50.928;4.440;2023-04-24T14:13:47;3.22;;;1.80;;
21245;SDS011;10781;50.928;4.440;2023-04-24T14:16:13;3.45;;;1.98;;
21245;SDS011;10781;50.928;4.440;2023-04-24T14:18:39;4.10;;;1.80;;
21245;SDS011;10781;50.928;4.440;2023-04-24T14:21:05;2.38;;;1.50;;
21245;SDS011;10781;50.928;4.440;2023-04-24T14:23:31;4.10;;;1.65;;
21245;SDS011;10781;50.928;4.440;2023-04-24T14:25:57;4.45;;;1.90;;
21245;SDS011;10781;50.928;4.440;2023-04-24T14:28:23;4.32;;;2.03;;
21245;SDS011;10781;50.928;4.440;2023-04-24T14:30:50;5.43;;;1.88;;
21245;SDS011;10781;50.928;4.440;2023-04-24T14:33:16;3.03;;;1.70;;
21245;SDS011;10781;50.928;4.440;2023-04-24T14:35:42;6.28;;;1.67;;
21245;SDS011;10781;50.928;4.440;2023-04-24T14:38:08;2.85;;;1.80;;
21245;SDS011;10781;50.928;4.440;2023-04-24T14:40:34;4.97;;;2.13;;
21245;SDS011;10781;50.928;4.440;2023-04-24T14:43:00;4.78;;;1.80;;
21245;SDS011;10781;50.928;4.440;2023-04-24T14:45:26;4.40;;;2.70;;
21245;SDS011;10781;50.928;4.440;2023-04-24T14:47:52;6.72;;;3.40;;
21245;SDS011;10781;50.928;4.440;2023-04-24T14:50:18;7.82;;;3.60;;